ESNQESNU

Guest
Details From ESNQ - Kiruna
To ESNU - Umea
Flight Number -
Tags generated
Created
Modified
Stats Distance 246 nm / 456 km
Max Altitude 28,500 ft / 8,687 m
Waypoints 4
Social Downloads 0
Likes 0
Share VATSIM

Download

Looking for another format? Having issues loading an existing format? Contact us
Advertisement - Login to hide

Notes

Basic altitude profile: - Ascent Rate: 2500ft/min - Ascent Speed: 250kts - Cruise Altitude: 2000000ft - Cruise Speed: 420kts - Descent Rate: 1500ft/min - Descent Speed: 250kts

Route

ESNQ RIXAN UT317 REKMI ESNU

ID Type Via Altitude Latitude Longitude Leg Dist Tot Dist Heading (true) Name
O ESNQ APT - 0 ft / 0 m 67.82198˚ 20.33676˚ - 0 nm - Kiruna
RIXAN FIX - 22,300 ft / 6,797 m 66.74167˚ 19.94939˚ 65 nm 65 nm 188° / 188° -
REKMI FIX UT317 (AWY-HI) 28,500 ft / 8,687 m 65.18297˚ 19.47256˚ 94 nm 159 nm 187° / 187° -
O ESNU APT - 0 ft / 0 m 63.79081˚ 20.28479˚ 86 nm 246 nm 166° / 166° Umea

Altitude Profile

Advertisement - Login to hide

Weather


0- 5 10 15 20 25 30 35+ Temperature / ° C

Clouds and Precipitation
Forecast for 2017-12-18 18:00 UTC. Updated 2 hours ago

Ground ~20,000 ft ~40,000 ft Winds

ESNQ

Details ICAO ESNQ (KRN)
Name Kiruna
Region Sweden
Timezone Europe/Stockholm (UTC+1.0)
Stats Elevation 1,508 ft / 460 m (AMSL)
Location 67.821984° 20.336762°
Runways 1
Magnetic Variation 9.075° E

METAR

ESNQ 181620Z 21004KT CAVOK M16/M17 Q1008

Decode

TAF

Not found

Departure Runways

ID Width Length Bearing (true) Bearing (mag) Surface Threshold Offset Overrun Length
03 148 ft / 45 m 8,183 ft / 2,494 m 33.63° 24.56° Asphalt 0 ft / 0 m 200 ft / 61 m
21 148 ft / 45 m 8,183 ft / 2,494 m 213.66° 204.59° Asphalt 0 ft / 0 m 200 ft / 61 m

ESNU

Details ICAO ESNU (UME)
Name Umea
Region Sweden
Timezone Europe/Stockholm (UTC+1.0)
Stats Elevation 24 ft / 7 m (AMSL)
Location 63.790814° 20.284786°
Runways 1
Magnetic Variation 7.972° E

METAR

ESNU 181620Z 00000KT 9999 OVC033 M07/M07 Q1011 R14/72//65

Decode

TAF

Not found

Destination Runways

ID Width Length Bearing (true) Bearing (mag) Surface Threshold Offset Overrun Length
14 148 ft / 45 m 7,530 ft / 2,295 m 138.49° 130.52° Asphalt 0 ft / 0 m 0 ft / 0 m
32 148 ft / 45 m 7,530 ft / 2,295 m 318.52° 310.55° Asphalt 196 ft / 60 m 0 ft / 0 m

Approach Navaids

Runway Type Ident Frequency Range Bearing (true) Bearing (mag) Slope Elevation
14 Localiser NU 109.90 MHz 18 nm / 33 km 138.52° 130.54° - 24 ft / 7 m (AMSL)
14 Glidescope NU 109.90 MHz 10 nm / 19 km 138.50° 130.53° 3.00° 24 ft / 7 m (AMSL)
32 Localiser SNU 110.70 MHz 18 nm / 33 km 318.49° 310.52° - 24 ft / 7 m (AMSL)
32 Glidescope SNU 110.70 MHz 10 nm / 19 km 318.50° 310.53° 3.00° 24 ft / 7 m (AMSL)

Popular Alternatives